sensor_id;sensor_type;location;lat;lon;timestamp;P1;durP1;ratioP1;P2;durP2;ratioP2
25667;SDS011;18003;-33.830;151.202;2022-09-01T00:01:29;10.75;;;3.87;;
25667;SDS011;18003;-33.830;151.202;2022-09-01T00:04:00;10.30;;;3.40;;
25667;SDS011;18003;-33.830;151.202;2022-09-01T00:06:31;7.33;;;3.07;;
25667;SDS011;18003;-33.830;151.202;2022-09-01T00:09:04;11.78;;;3.33;;
25667;SDS011;18003;-33.830;151.202;2022-09-01T00:11:33;9.10;;;3.02;;
25667;SDS011;18003;-33.830;151.202;2022-09-01T00:14:04;9.65;;;2.85;;
25667;SDS011;18003;-33.830;151.202;2022-09-01T00:16:35;11.03;;;3.42;;
25667;SDS011;18003;-33.830;151.202;2022-09-01T00:19:05;10.35;;;3.75;;
25667;SDS011;18003;-33.830;151.202;2022-09-01T00:21:37;11.45;;;3.00;;
25667;SDS011;18003;-33.830;151.202;2022-09-01T01:08:54;12.70;;;2.95;;
25667;SDS011;18003;-33.830;151.202;2022-09-01T01:11:28;8.40;;;2.87;;
25667;SDS011;18003;-33.830;151.202;2022-09-01T01:14:06;9.93;;;3.42;;
25667;SDS011;18003;-33.830;151.202;2022-09-01T01:16:32;7.22;;;3.17;;
25667;SDS011;18003;-33.830;151.202;2022-09-01T01:52:09;10.30;;;4.33;;
25667;SDS011;18003;-33.830;151.202;2022-09-01T01:54:43;8.78;;;3.67;;
25667;SDS011;18003;-33.830;151.202;2022-09-01T01:57:13;11.05;;;3.80;;
25667;SDS011;18003;-33.830;151.202;2022-09-01T01:59:43;11.53;;;2.52;;
25667;SDS011;18003;-33.830;151.202;2022-09-01T02:02:13;8.90;;;2.92;;
25667;SDS011;18003;-33.830;151.202;2022-09-01T02:04:43;10.75;;;2.85;;
25667;SDS011;18003;-33.830;151.202;2022-09-01T02:07:29;12.00;;;3.10;;
25667;SDS011;18003;-33.830;151.202;2022-09-01T02:10:00;11.85;;;3.00;;
25667;SDS011;18003;-33.830;151.202;2022-09-01T02:12:30;10.93;;;2.60;;
25667;SDS011;18003;-33.830;151.202;2022-09-01T02:15:01;10.72;;;2.55;;
25667;SDS011;18003;-33.830;151.202;2022-09-01T02:20:01;11.57;;;3.05;;
25667;SDS011;18003;-33.830;151.202;2022-09-01T02:22:31;10.60;;;2.77;;
25667;SDS011;18003;-33.830;151.202;2022-09-01T02:25:06;11.35;;;3.52;;
25667;SDS011;18003;-33.830;151.202;2022-09-01T02:27:36;11.35;;;3.37;;
25667;SDS011;18003;-33.830;151.202;2022-09-01T02:30:07;8.78;;;2.80;;
25667;SDS011;18003;-33.830;151.202;2022-09-01T02:32:38;15.88;;;3.37;;
25667;SDS011;18003;-33.830;151.202;2022-09-01T02:35:08;17.92;;;2.92;;
25667;SDS011;18003;-33.830;151.202;2022-09-01T02:37:39;13.65;;;3.58;;
25667;SDS011;18003;-33.830;151.202;2022-09-01T02:40:09;14.60;;;3.37;;
25667;SDS011;18003;-33.830;151.202;2022-09-01T02:42:40;9.05;;;3.00;;
25667;SDS011;18003;-33.830;151.202;2022-09-01T02:45:11;10.32;;;2.92;;
25667;SDS011;18003;-33.830;151.202;2022-09-01T02:47:41;7.78;;;2.72;;
25667;SDS011;18003;-33.830;151.202;2022-09-01T02:50:13;12.70;;;3.70;;
25667;SDS011;18003;-33.830;151.202;2022-09-01T02:52:44;11.75;;;3.02;;
25667;SDS011;18003;-33.830;151.202;2022-09-01T02:55:16;13.30;;;3.12;;
25667;SDS011;18003;-33.830;151.202;2022-09-01T02:57:50;11.68;;;3.77;;
25667;SDS011;18003;-33.830;151.202;2022-09-01T03:00:24;10.45;;;2.85;;
25667;SDS011;18003;-33.830;151.202;2022-09-01T03:02:59;12.60;;;3.22;;
25667;SDS011;18003;-33.830;151.202;2022-09-01T03:05:29;9.43;;;2.77;;
25667;SDS011;18003;-33.830;151.202;2022-09-01T03:08:00;13.72;;;3.50;;
25667;SDS011;18003;-33.830;151.202;2022-09-01T03:10:34;10.88;;;3.35;;
25667;SDS011;18003;-33.830;151.202;2022-09-01T03:13:06;12.98;;;3.80;;
25667;SDS011;18003;-33.830;151.202;2022-09-01T03:15:38;14.47;;;3.00;;
25667;SDS011;18003;-33.830;151.202;2022-09-01T03:27:22;12.23;;;3.20;;
25667;SDS011;18003;-33.830;151.202;2022-09-01T03:29:52;11.88;;;3.42;;
25667;SDS011;18003;-33.830;151.202;2022-09-01T03:32:22;14.75;;;3.47;;
25667;SDS011;18003;-33.830;151.202;2022-09-01T03:34:52;14.80;;;3.75;;
25667;SDS011;18003;-33.830;151.202;2022-09-01T03:37:22;9.10;;;3.55;;
25667;SDS011;18003;-33.830;151.202;2022-09-01T03:39:52;12.73;;;3.58;;
25667;SDS011;18003;-33.830;151.202;2022-09-01T03:42:24;9.75;;;3.17;;
25667;SDS011;18003;-33.830;151.202;2022-09-01T03:44:55;10.82;;;3.35;;
25667;SDS011;18003;-33.830;151.202;2022-09-01T03:47:24;10.05;;;3.47;;
25667;SDS011;18003;-33.830;151.202;2022-09-01T03:53:17;11.93;;;3.37;;
25667;SDS011;18003;-33.830;151.202;2022-09-01T03:55:48;11.35;;;3.92;;
25667;SDS011;18003;-33.830;151.202;2022-09-01T03:58:18;10.60;;;3.62;;
25667;SDS011;18003;-33.830;151.202;2022-09-01T04:00:53;14.68;;;4.17;;
25667;SDS011;18003;-33.830;151.202;2022-09-01T04:03:24;11.45;;;3.30;;
25667;SDS011;18003;-33.830;151.202;2022-09-01T04:05:56;15.98;;;3.15;;
25667;SDS011;18003;-33.830;151.202;2022-09-01T04:08:27;9.78;;;3.05;;
25667;SDS011;18003;-33.830;151.202;2022-09-01T04:10:58;11.00;;;3.77;;
25667;SDS011;18003;-33.830;151.202;2022-09-01T04:13:32;11.33;;;3.45;;
25667;SDS011;18003;-33.830;151.202;2022-09-01T04:16:06;10.43;;;3.55;;
25667;SDS011;18003;-33.830;151.202;2022-09-01T04:18:38;10.25;;;3.80;;
25667;SDS011;18003;-33.830;151.202;2022-09-01T04:21:08;14.47;;;3.95;;
25667;SDS011;18003;-33.830;151.202;2022-09-01T04:23:39;14.40;;;3.80;;
25667;SDS011;18003;-33.830;151.202;2022-09-01T04:26:11;11.03;;;3.77;;
25667;SDS011;18003;-33.830;151.202;2022-09-01T04:28:43;10.90;;;3.52;;
25667;SDS011;18003;-33.830;151.202;2022-09-01T04:31:16;10.00;;;3.08;;
25667;SDS011;18003;-33.830;151.202;2022-09-01T04:33:48;11.05;;;3.50;;
25667;SDS011;18003;-33.830;151.202;2022-09-01T04:36:20;13.45;;;3.30;;
25667;SDS011;18003;-33.830;151.202;2022-09-01T04:38:52;9.13;;;2.80;;
25667;SDS011;18003;-33.830;151.202;2022-09-01T04:41:23;12.88;;;3.27;;
25667;SDS011;18003;-33.830;151.202;2022-09-01T04:43:57;12.53;;;3.27;;
25667;SDS011;18003;-33.830;151.202;2022-09-01T04:46:29;12.07;;;3.08;;
25667;SDS011;18003;-33.830;151.202;2022-09-01T04:49:01;13.18;;;3.40;;
25667;SDS011;18003;-33.830;151.202;2022-09-01T04:51:32;13.22;;;3.42;;
25667;SDS011;18003;-33.830;151.202;2022-09-01T04:54:04;14.75;;;3.17;;
25667;SDS011;18003;-33.830;151.202;2022-09-01T04:56:35;10.05;;;3.37;;
25667;SDS011;18003;-33.830;151.202;2022-09-01T04:59:05;11.57;;;2.70;;
25667;SDS011;18003;-33.830;151.202;2022-09-01T05:01:36;13.43;;;3.50;;
25667;SDS011;18003;-33.830;151.202;2022-09-01T05:04:18;11.75;;;3.12;;
25667;SDS011;18003;-33.830;151.202;2022-09-01T05:06:48;10.20;;;2.87;;
25667;SDS011;18003;-33.830;151.202;2022-09-01T05:09:21;10.45;;;3.08;;
25667;SDS011;18003;-33.830;151.202;2022-09-01T05:11:51;11.43;;;3.22;;
25667;SDS011;18003;-33.830;151.202;2022-09-01T05:14:22;10.93;;;3.10;;
25667;SDS011;18003;-33.830;151.202;2022-09-01T05:16:56;10.85;;;2.98;;
25667;SDS011;18003;-33.830;151.202;2022-09-01T05:19:27;11.80;;;2.95;;
25667;SDS011;18003;-33.830;151.202;2022-09-01T05:21:57;9.68;;;2.85;;
25667;SDS011;18003;-33.830;151.202;2022-09-01T05:24:27;12.73;;;2.95;;
25667;SDS011;18003;-33.830;151.202;2022-09-01T05:26:58;10.88;;;3.60;;
25667;SDS011;18003;-33.830;151.202;2022-09-01T05:29:28;10.03;;;2.62;;
25667;SDS011;18003;-33.830;151.202;2022-09-01T05:31:58;11.55;;;2.95;;
25667;SDS011;18003;-33.830;151.202;2022-09-01T05:34:29;9.18;;;2.47;;
25667;SDS011;18003;-33.830;151.202;2022-09-01T05:37:00;9.63;;;2.50;;
25667;SDS011;18003;-33.830;151.202;2022-09-01T05:39:32;8.60;;;2.98;;
25667;SDS011;18003;-33.830;151.202;2022-09-01T05:44:33;10.45;;;3.05;;
25667;SDS011;18003;-33.830;151.202;2022-09-01T05:47:10;11.55;;;3.00;;
25667;SDS011;18003;-33.830;151.202;2022-09-01T05:49:42;12.00;;;2.67;;
25667;SDS011;18003;-33.830;151.202;2022-09-01T05:52:12;12.43;;;2.87;;
25667;SDS011;18003;-33.830;151.202;2022-09-01T05:54:42;12.25;;;3.02;;
25667;SDS011;18003;-33.830;151.202;2022-09-01T05:57:13;9.65;;;2.67;;
25667;SDS011;18003;-33.830;151.202;2022-09-01T05:59:43;12.50;;;3.02;;
25667;SDS011;18003;-33.830;151.202;2022-09-01T06:02:14;9.10;;;2.40;;
25667;SDS011;18003;-33.830;151.202;2022-09-01T06:04:44;13.55;;;3.30;;
25667;SDS011;18003;-33.830;151.202;2022-09-01T06:07:15;13.00;;;2.70;;
25667;SDS011;18003;-33.830;151.202;2022-09-01T06:09:46;15.32;;;3.00;;
25667;SDS011;18003;-33.830;151.202;2022-09-01T06:12:17;10.35;;;2.80;;
25667;SDS011;18003;-33.830;151.202;2022-09-01T06:17:36;10.18;;;2.90;;
25667;SDS011;18003;-33.830;151.202;2022-09-01T06:20:07;12.50;;;2.73;;
25667;SDS011;18003;-33.830;151.202;2022-09-01T06:22:37;11.03;;;3.03;;
25667;SDS011;18003;-33.830;151.202;2022-09-01T06:25:08;12.13;;;2.95;;
25667;SDS011;18003;-33.830;151.202;2022-09-01T06:27:38;11.40;;;2.60;;
25667;SDS011;18003;-33.830;151.202;2022-09-01T06:30:09;9.90;;;2.80;;
25667;SDS011;18003;-33.830;151.202;2022-09-01T06:32:43;9.50;;;2.52;;
25667;SDS011;18003;-33.830;151.202;2022-09-01T06:35:18;12.63;;;2.87;;
25667;SDS011;18003;-33.830;151.202;2022-09-01T06:37:53;9.00;;;3.42;;
25667;SDS011;18003;-33.830;151.202;2022-09-01T06:40:24;16.23;;;2.92;;
25667;SDS011;18003;-33.830;151.202;2022-09-01T06:42:54;10.03;;;2.58;;
25667;SDS011;18003;-33.830;151.202;2022-09-01T06:45:28;12.88;;;2.83;;
25667;SDS011;18003;-33.830;151.202;2022-09-01T06:47:58;11.00;;;2.70;;
25667;SDS011;18003;-33.830;151.202;2022-09-01T06:50:28;11.45;;;2.70;;
25667;SDS011;18003;-33.830;151.202;2022-09-01T06:52:58;10.38;;;3.05;;
25667;SDS011;18003;-33.830;151.202;2022-09-01T06:55:30;10.90;;;3.00;;
25667;SDS011;18003;-33.830;151.202;2022-09-01T06:58:00;13.00;;;2.83;;
25667;SDS011;18003;-33.830;151.202;2022-09-01T07:00:31;16.97;;;3.75;;
25667;SDS011;18003;-33.830;151.202;2022-09-01T07:03:03;10.48;;;2.92;;
25667;SDS011;18003;-33.830;151.202;2022-09-01T07:05:37;12.13;;;2.77;;
25667;SDS011;18003;-33.830;151.202;2022-09-01T07:08:09;12.43;;;2.77;;
25667;SDS011;18003;-33.830;151.202;2022-09-01T07:10:48;12.10;;;3.00;;
25667;SDS011;18003;-33.830;151.202;2022-09-01T07:13:21;13.65;;;3.45;;
25667;SDS011;18003;-33.830;151.202;2022-09-01T07:15:51;13.28;;;3.02;;
25667;SDS011;18003;-33.830;151.202;2022-09-01T07:18:23;9.55;;;3.15;;
25667;SDS011;18003;-33.830;151.202;2022-09-01T07:20:54;12.88;;;3.30;;
25667;SDS011;18003;-33.830;151.202;2022-09-01T07:23:24;10.63;;;3.22;;
25667;SDS011;18003;-33.830;151.202;2022-09-01T07:25:55;12.60;;;3.02;;
25667;SDS011;18003;-33.830;151.202;2022-09-01T07:28:25;15.90;;;3.42;;
25667;SDS011;18003;-33.830;151.202;2022-09-01T07:30:58;11.78;;;2.58;;
25667;SDS011;18003;-33.830;151.202;2022-09-01T07:33:30;11.93;;;2.87;;
25667;SDS011;18003;-33.830;151.202;2022-09-01T07:36:00;13.10;;;2.40;;
25667;SDS011;18003;-33.830;151.202;2022-09-01T07:38:31;10.85;;;2.45;;
25667;SDS011;18003;-33.830;151.202;2022-09-01T07:41:01;10.20;;;2.37;;
25667;SDS011;18003;-33.830;151.202;2022-09-01T07:43:32;10.10;;;2.43;;
25667;SDS011;18003;-33.830;151.202;2022-09-01T07:46:03;12.93;;;2.87;;
25667;SDS011;18003;-33.830;151.202;2022-09-01T07:48:33;13.28;;;2.95;;
25667;SDS011;18003;-33.830;151.202;2022-09-01T07:51:04;14.93;;;3.12;;
25667;SDS011;18003;-33.830;151.202;2022-09-01T07:53:34;12.73;;;2.60;;
25667;SDS011;18003;-33.830;151.202;2022-09-01T07:56:05;9.70;;;2.80;;
25667;SDS011;18003;-33.830;151.202;2022-09-01T07:58:37;13.35;;;3.17;;
25667;SDS011;18003;-33.830;151.202;2022-09-01T08:01:08;10.40;;;2.70;;
25667;SDS011;18003;-33.830;151.202;2022-09-01T08:03:40;15.75;;;3.00;;
25667;SDS011;18003;-33.830;151.202;2022-09-01T08:06:11;10.75;;;3.42;;
25667;SDS011;18003;-33.830;151.202;2022-09-01T08:08:43;13.95;;;3.00;;
25667;SDS011;18003;-33.830;151.202;2022-09-01T08:11:18;12.73;;;2.85;;
25667;SDS011;18003;-33.830;151.202;2022-09-01T08:13:50;11.38;;;3.00;;
25667;SDS011;18003;-33.830;151.202;2022-09-01T08:16:21;17.85;;;3.30;;
25667;SDS011;18003;-33.830;151.202;2022-09-01T08:18:52;17.60;;;5.10;;
25667;SDS011;18003;-33.830;151.202;2022-09-01T08:21:23;17.17;;;6.37;;
25667;SDS011;18003;-33.830;151.202;2022-09-01T08:23:53;22.77;;;10.05;;
25667;SDS011;18003;-33.830;151.202;2022-09-01T08:26:24;28.20;;;16.25;;
25667;SDS011;18003;-33.830;151.202;2022-09-01T08:28:55;25.32;;;13.50;;
25667;SDS011;18003;-33.830;151.202;2022-09-01T08:31:24;17.52;;;11.53;;
25667;SDS011;18003;-33.830;151.202;2022-09-01T08:33:54;14.07;;;7.80;;
25667;SDS011;18003;-33.830;151.202;2022-09-01T08:36:25;16.05;;;7.40;;
25667;SDS011;18003;-33.830;151.202;2022-09-01T08:38:55;13.00;;;6.12;;
25667;SDS011;18003;-33.830;151.202;2022-09-01T08:44:13;16.30;;;3.95;;
25667;SDS011;18003;-33.830;151.202;2022-09-01T08:47:04;16.80;;;4.22;;
25667;SDS011;18003;-33.830;151.202;2022-09-01T08:49:30;11.48;;;3.50;;
25667;SDS011;18003;-33.830;151.202;2022-09-01T08:52:06;15.23;;;4.12;;
25667;SDS011;18003;-33.830;151.202;2022-09-01T08:54:39;12.28;;;3.60;;
25667;SDS011;18003;-33.830;151.202;2022-09-01T08:57:23;19.27;;;4.35;;
25667;SDS011;18003;-33.830;151.202;2022-09-01T09:00:00;14.15;;;3.42;;
25667;SDS011;18003;-33.830;151.202;2022-09-01T09:02:35;12.88;;;3.47;;
25667;SDS011;18003;-33.830;151.202;2022-09-01T09:10:31;10.00;;;2.80;;
25667;SDS011;18003;-33.830;151.202;2022-09-01T09:13:16;8.70;;;2.72;;
25667;SDS011;18003;-33.830;151.202;2022-09-01T09:15:56;13.95;;;2.50;;
25667;SDS011;18003;-33.830;151.202;2022-09-01T09:18:42;14.75;;;3.08;;
25667;SDS011;18003;-33.830;151.202;2022-09-01T09:21:13;11.73;;;2.85;;
25667;SDS011;18003;-33.830;151.202;2022-09-01T09:23:48;13.40;;;2.75;;
25667;SDS011;18003;-33.830;151.202;2022-09-01T09:26:19;13.65;;;3.20;;
25667;SDS011;18003;-33.830;151.202;2022-09-01T09:28:49;8.78;;;2.15;;
25667;SDS011;18003;-33.830;151.202;2022-09-01T09:31:27;10.40;;;3.20;;
25667;SDS011;18003;-33.830;151.202;2022-09-01T09:33:58;10.72;;;2.40;;
25667;SDS011;18003;-33.830;151.202;2022-09-01T09:36:30;8.60;;;2.37;;
25667;SDS011;18003;-33.830;151.202;2022-09-01T09:39:04;13.18;;;2.90;;
25667;SDS011;18003;-33.830;151.202;2022-09-01T09:41:36;11.45;;;2.37;;
25667;SDS011;18003;-33.830;151.202;2022-09-01T09:44:20;10.80;;;2.60;;
25667;SDS011;18003;-33.830;151.202;2022-09-01T09:46:50;12.75;;;2.67;;
25667;SDS011;18003;-33.830;151.202;2022-09-01T09:49:30;10.10;;;2.45;;
25667;SDS011;18003;-33.830;151.202;2022-09-01T09:52:17;11.40;;;2.67;;
25667;SDS011;18003;-33.830;151.202;2022-09-01T09:55:02;12.10;;;2.65;;
25667;SDS011;18003;-33.830;151.202;2022-09-01T09:57:29;13.58;;;3.08;;
25667;SDS011;18003;-33.830;151.202;2022-09-01T10:00:17;12.43;;;2.50;;
25667;SDS011;18003;-33.830;151.202;2022-09-01T10:02:43;10.65;;;2.80;;
25667;SDS011;18003;-33.830;151.202;2022-09-01T10:05:26;13.10;;;2.72;;
25667;SDS011;18003;-33.830;151.202;2022-09-01T10:07:56;10.53;;;2.62;;
25667;SDS011;18003;-33.830;151.202;2022-09-01T10:10:28;9.58;;;2.77;;
25667;SDS011;18003;-33.830;151.202;2022-09-01T10:13:12;13.83;;;2.85;;
25667;SDS011;18003;-33.830;151.202;2022-09-01T10:15:54;10.72;;;2.67;;
25667;SDS011;18003;-33.830;151.202;2022-09-01T10:18:26;15.43;;;2.85;;
25667;SDS011;18003;-33.830;151.202;2022-09-01T10:23:22;11.68;;;2.35;;
25667;SDS011;18003;-33.830;151.202;2022-09-01T10:25:55;12.90;;;2.47;;
25667;SDS011;18003;-33.830;151.202;2022-09-01T10:28:26;12.95;;;2.67;;
25667;SDS011;18003;-33.830;151.202;2022-09-01T10:30:57;14.55;;;3.12;;
25667;SDS011;18003;-33.830;151.202;2022-09-01T10:33:27;9.53;;;2.87;;
25667;SDS011;18003;-33.830;151.202;2022-09-01T10:35:58;12.40;;;3.05;;
25667;SDS011;18003;-33.830;151.202;2022-09-01T10:38:29;10.08;;;2.52;;
25667;SDS011;18003;-33.830;151.202;2022-09-01T10:40:59;7.53;;;2.87;;
25667;SDS011;18003;-33.830;151.202;2022-09-01T10:43:42;11.68;;;3.17;;
25667;SDS011;18003;-33.830;151.202;2022-09-01T10:48:52;11.60;;;2.85;;
25667;SDS011;18003;-33.830;151.202;2022-09-01T10:54:01;11.05;;;2.77;;
25667;SDS011;18003;-33.830;151.202;2022-09-01T10:56:35;10.13;;;2.62;;
25667;SDS011;18003;-33.830;151.202;2022-09-01T11:10:14;12.43;;;2.77;;
25667;SDS011;18003;-33.830;151.202;2022-09-01T11:12:46;12.30;;;3.15;;
25667;SDS011;18003;-33.830;151.202;2022-09-01T11:15:36;12.15;;;2.62;;
25667;SDS011;18003;-33.830;151.202;2022-09-01T11:20:40;12.80;;;2.90;;
25667;SDS011;18003;-33.830;151.202;2022-09-01T11:23:22;11.75;;;2.77;;
25667;SDS011;18003;-33.830;151.202;2022-09-01T11:25:57;9.45;;;2.58;;
25667;SDS011;18003;-33.830;151.202;2022-09-01T11:28:35;8.95;;;2.40;;
25667;SDS011;18003;-33.830;151.202;2022-09-01T11:39:04;11.97;;;2.67;;
25667;SDS011;18003;-33.830;151.202;2022-09-01T11:44:48;9.73;;;2.70;;
25667;SDS011;18003;-33.830;151.202;2022-09-01T11:47:26;11.20;;;2.60;;
25667;SDS011;18003;-33.830;151.202;2022-09-01T11:52:28;13.05;;;2.65;;
25667;SDS011;18003;-33.830;151.202;2022-09-01T11:54:59;12.25;;;2.80;;
25667;SDS011;18003;-33.830;151.202;2022-09-01T11:57:33;8.75;;;2.98;;
25667;SDS011;18003;-33.830;151.202;2022-09-01T12:00:08;13.43;;;3.27;;
25667;SDS011;18003;-33.830;151.202;2022-09-01T12:02:43;13.90;;;3.08;;
25667;SDS011;18003;-33.830;151.202;2022-09-01T12:08:10;9.33;;;2.47;;
25667;SDS011;18003;-33.830;151.202;2022-09-01T12:10:43;9.18;;;2.37;;
25667;SDS011;18003;-33.830;151.202;2022-09-01T12:13:17;12.18;;;3.10;;
25667;SDS011;18003;-33.830;151.202;2022-09-01T12:15:55;11.53;;;2.72;;
25667;SDS011;18003;-33.830;151.202;2022-09-01T12:18:28;10.05;;;2.83;;
25667;SDS011;18003;-33.830;151.202;2022-09-01T12:21:01;12.37;;;3.05;;
25667;SDS011;18003;-33.830;151.202;2022-09-01T12:23:34;10.72;;;2.75;;
25667;SDS011;18003;-33.830;151.202;2022-09-01T12:26:17;10.82;;;2.58;;
25667;SDS011;18003;-33.830;151.202;2022-09-01T12:28:43;10.45;;;2.92;;
25667;SDS011;18003;-33.830;151.202;2022-09-01T12:33:45;8.90;;;2.35;;
25667;SDS011;18003;-33.830;151.202;2022-09-01T12:38:58;10.55;;;2.80;;
25667;SDS011;18003;-33.830;151.202;2022-09-01T12:41:33;13.10;;;3.00;;
25667;SDS011;18003;-33.830;151.202;2022-09-01T12:46:58;10.28;;;2.72;;
25667;SDS011;18003;-33.830;151.202;2022-09-01T12:49:39;11.80;;;2.80;;
25667;SDS011;18003;-33.830;151.202;2022-09-01T12:52:16;10.30;;;3.25;;
25667;SDS011;18003;-33.830;151.202;2022-09-01T12:54:52;7.72;;;2.50;;
25667;SDS011;18003;-33.830;151.202;2022-09-01T13:03:13;11.55;;;3.08;;
25667;SDS011;18003;-33.830;151.202;2022-09-01T13:08:07;8.38;;;2.90;;
25667;SDS011;18003;-33.830;151.202;2022-09-01T13:10:42;10.00;;;2.83;;
25667;SDS011;18003;-33.830;151.202;2022-09-01T13:13:13;9.38;;;2.60;;
25667;SDS011;18003;-33.830;151.202;2022-09-01T13:15:48;12.37;;;3.22;;
25667;SDS011;18003;-33.830;151.202;2022-09-01T13:18:19;8.68;;;2.87;;
25667;SDS011;18003;-33.830;151.202;2022-09-01T13:20:50;10.40;;;2.60;;
25667;SDS011;18003;-33.830;151.202;2022-09-01T13:23:21;10.20;;;2.55;;
25667;SDS011;18003;-33.830;151.202;2022-09-01T13:25:52;11.35;;;2.80;;
25667;SDS011;18003;-33.830;151.202;2022-09-01T13:28:22;11.38;;;2.80;;
25667;SDS011;18003;-33.830;151.202;2022-09-01T13:30:58;12.35;;;3.05;;
25667;SDS011;18003;-33.830;151.202;2022-09-01T13:33:33;7.75;;;3.22;;
25667;SDS011;18003;-33.830;151.202;2022-09-01T13:36:03;7.93;;;2.77;;
25667;SDS011;18003;-33.830;151.202;2022-09-01T13:38:34;9.73;;;3.20;;
25667;SDS011;18003;-33.830;151.202;2022-09-01T13:41:04;12.13;;;3.05;;
25667;SDS011;18003;-33.830;151.202;2022-09-01T13:43:36;10.85;;;3.60;;
25667;SDS011;18003;-33.830;151.202;2022-09-01T13:46:06;6.60;;;2.15;;
25667;SDS011;18003;-33.830;151.202;2022-09-01T13:48:37;10.65;;;2.98;;
25667;SDS011;18003;-33.830;151.202;2022-09-01T13:51:07;9.55;;;2.83;;
25667;SDS011;18003;-33.830;151.202;2022-09-01T13:53:37;10.43;;;3.08;;
25667;SDS011;18003;-33.830;151.202;2022-09-01T13:56:07;11.93;;;3.20;;
25667;SDS011;18003;-33.830;151.202;2022-09-01T13:58:37;10.23;;;2.90;;
25667;SDS011;18003;-33.830;151.202;2022-09-01T14:01:07;11.30;;;2.90;;
25667;SDS011;18003;-33.830;151.202;2022-09-01T14:03:38;8.48;;;2.98;;
25667;SDS011;18003;-33.830;151.202;2022-09-01T14:06:09;9.33;;;3.10;;
25667;SDS011;18003;-33.830;151.202;2022-09-01T14:08:39;7.45;;;2.27;;
25667;SDS011;18003;-33.830;151.202;2022-09-01T14:11:14;9.85;;;2.85;;
25667;SDS011;18003;-33.830;151.202;2022-09-01T14:13:41;12.55;;;2.70;;
25667;SDS011;18003;-33.830;151.202;2022-09-01T14:16:11;8.53;;;2.30;;
25667;SDS011;18003;-33.830;151.202;2022-09-01T14:18:42;7.43;;;2.73;;
25667;SDS011;18003;-33.830;151.202;2022-09-01T14:21:12;7.22;;;2.37;;
25667;SDS011;18003;-33.830;151.202;2022-09-01T14:23:43;10.48;;;2.47;;
25667;SDS011;18003;-33.830;151.202;2022-09-01T14:26:13;10.05;;;2.55;;
25667;SDS011;18003;-33.830;151.202;2022-09-01T14:28:44;9.60;;;2.70;;
25667;SDS011;18003;-33.830;151.202;2022-09-01T14:31:15;8.03;;;2.70;;
25667;SDS011;18003;-33.830;151.202;2022-09-01T14:33:46;9.25;;;3.00;;
25667;SDS011;18003;-33.830;151.202;2022-09-01T14:36:18;10.03;;;2.92;;
25667;SDS011;18003;-33.830;151.202;2022-09-01T14:38:48;9.68;;;2.60;;
25667;SDS011;18003;-33.830;151.202;2022-09-01T14:43:50;8.73;;;2.70;;
25667;SDS011;18003;-33.830;151.202;2022-09-01T14:46:20;6.30;;;2.25;;
25667;SDS011;18003;-33.830;151.202;2022-09-01T14:48:50;8.30;;;2.52;;
25667;SDS011;18003;-33.830;151.202;2022-09-01T14:51:22;9.78;;;2.85;;
25667;SDS011;18003;-33.830;151.202;2022-09-01T14:56:21;10.32;;;2.80;;
25667;SDS011;18003;-33.830;151.202;2022-09-01T14:58:52;8.77;;;2.47;;
25667;SDS011;18003;-33.830;151.202;2022-09-01T15:01:23;8.28;;;2.52;;
25667;SDS011;18003;-33.830;151.202;2022-09-01T15:03:54;9.78;;;3.12;;
25667;SDS011;18003;-33.830;151.202;2022-09-01T15:06:24;7.40;;;2.50;;
25667;SDS011;18003;-33.830;151.202;2022-09-01T15:08:55;6.60;;;2.45;;
25667;SDS011;18003;-33.830;151.202;2022-09-01T15:11:26;11.05;;;3.45;;
25667;SDS011;18003;-33.830;151.202;2022-09-01T15:13:56;6.55;;;2.50;;
25667;SDS011;18003;-33.830;151.202;2022-09-01T15:16:26;8.63;;;2.70;;
25667;SDS011;18003;-33.830;151.202;2022-09-01T15:18:56;8.03;;;2.60;;
25667;SDS011;18003;-33.830;151.202;2022-09-01T15:21:28;8.95;;;3.10;;
25667;SDS011;18003;-33.830;151.202;2022-09-01T15:23:59;9.85;;;2.60;;
25667;SDS011;18003;-33.830;151.202;2022-09-01T15:26:29;9.35;;;2.70;;
25667;SDS011;18003;-33.830;151.202;2022-09-01T15:28:59;7.47;;;2.58;;
25667;SDS011;18003;-33.830;151.202;2022-09-01T15:31:29;7.62;;;2.70;;
25667;SDS011;18003;-33.830;151.202;2022-09-01T15:34:00;7.58;;;2.72;;
25667;SDS011;18003;-33.830;151.202;2022-09-01T15:36:33;7.22;;;2.55;;
25667;SDS011;18003;-33.830;151.202;2022-09-01T15:39:04;7.55;;;2.33;;
25667;SDS011;18003;-33.830;151.202;2022-09-01T15:41:34;8.13;;;2.80;;
25667;SDS011;18003;-33.830;151.202;2022-09-01T15:44:05;6.05;;;2.35;;
25667;SDS011;18003;-33.830;151.202;2022-09-01T15:46:36;8.38;;;2.65;;
25667;SDS011;18003;-33.830;151.202;2022-09-01T15:49:08;5.08;;;2.42;;
25667;SDS011;18003;-33.830;151.202;2022-09-01T15:51:43;8.63;;;2.80;;
25667;SDS011;18003;-33.830;151.202;2022-09-01T15:54:10;8.45;;;2.60;;
25667;SDS011;18003;-33.830;151.202;2022-09-01T15:56:41;5.65;;;2.47;;
25667;SDS011;18003;-33.830;151.202;2022-09-01T15:59:13;7.50;;;2.83;;
25667;SDS011;18003;-33.830;151.202;2022-09-01T16:01:43;7.07;;;2.50;;
25667;SDS011;18003;-33.830;151.202;2022-09-01T16:04:14;6.37;;;2.60;;
25667;SDS011;18003;-33.830;151.202;2022-09-01T16:06:45;6.17;;;2.90;;
25667;SDS011;18003;-33.830;151.202;2022-09-01T16:09:16;8.90;;;2.50;;
25667;SDS011;18003;-33.830;151.202;2022-09-01T16:11:50;8.05;;;3.12;;
25667;SDS011;18003;-33.830;151.202;2022-09-01T16:14:21;5.50;;;2.33;;
25667;SDS011;18003;-33.830;151.202;2022-09-01T16:17:01;7.78;;;2.60;;
25667;SDS011;18003;-33.830;151.202;2022-09-01T16:19:49;7.78;;;2.60;;
25667;SDS011;18003;-33.830;151.202;2022-09-01T16:25:03;5.87;;;2.60;;
25667;SDS011;18003;-33.830;151.202;2022-09-01T16:27:39;9.23;;;3.05;;
25667;SDS011;18003;-33.830;151.202;2022-09-01T16:30:04;8.73;;;2.90;;
25667;SDS011;18003;-33.830;151.202;2022-09-01T16:32:42;7.58;;;2.70;;
25667;SDS011;18003;-33.830;151.202;2022-09-01T16:35:07;8.35;;;2.77;;
25667;SDS011;18003;-33.830;151.202;2022-09-01T16:37:40;8.05;;;2.50;;
25667;SDS011;18003;-33.830;151.202;2022-09-01T16:56:59;12.68;;;3.25;;
25667;SDS011;18003;-33.830;151.202;2022-09-01T16:59:44;9.75;;;3.15;;
25667;SDS011;18003;-33.830;151.202;2022-09-01T17:04:53;10.55;;;3.35;;
25667;SDS011;18003;-33.830;151.202;2022-09-01T17:07:33;5.97;;;2.75;;
25667;SDS011;18003;-33.830;151.202;2022-09-01T17:12:53;10.43;;;3.17;;
25667;SDS011;18003;-33.830;151.202;2022-09-01T17:15:37;8.63;;;3.08;;
25667;SDS011;18003;-33.830;151.202;2022-09-01T17:18:11;8.58;;;2.90;;
25667;SDS011;18003;-33.830;151.202;2022-09-01T17:20:42;8.33;;;3.22;;
25667;SDS011;18003;-33.830;151.202;2022-09-01T17:23:16;8.18;;;2.58;;
25667;SDS011;18003;-33.830;151.202;2022-09-01T17:25:51;8.75;;;3.08;;
25667;SDS011;18003;-33.830;151.202;2022-09-01T17:28:37;10.93;;;3.15;;
25667;SDS011;18003;-33.830;151.202;2022-09-01T17:31:17;8.03;;;2.90;;
25667;SDS011;18003;-33.830;151.202;2022-09-01T17:42:50;7.58;;;3.17;;
25667;SDS011;18003;-33.830;151.202;2022-09-01T17:55:44;8.98;;;2.98;;
25667;SDS011;18003;-33.830;151.202;2022-09-01T18:00:59;6.12;;;2.85;;
25667;SDS011;18003;-33.830;151.202;2022-09-01T18:06:22;7.42;;;3.27;;